Time;durP1;ratioP1;P1;durP2;ratioP2;P2;SDS_P1;SDS_P2;PMS_P1;PMS_P2;Temp;Humidity;BMP_temperature;BMP_pressure;BME280_temperature;BME280_humidity;BME280_pressure;Samples;Min_cycle;Max_cycle;Signal;HPM_P1;HPM_P2
2022/03/23 00:00:07;;;;;;;6.80;6.10;;;20.10;42.00;;;;;;4957694;28;20256;-68
2022/03/23 00:02:38;;;;;;;6.97;5.80;;;20.10;42.10;;;;;;4975118;28;20166;-68
2022/03/23 00:05:04;;;;;;;7.65;6.07;;;20.10;42.20;;;;;;4941345;28;20186;-68
2022/03/23 00:07:30;;;;;;;6.72;6.03;;;20.10;42.20;;;;;;4974648;28;20181;-68
2022/03/23 00:09:56;;;;;;;6.45;5.78;;;20.10;42.20;;;;;;4974349;28;20202;-68
2022/03/23 00:12:21;;;;;;;6.05;5.25;;;20.10;42.20;;;;;;4974706;28;20186;-68
2022/03/23 00:14:47;;;;;;;6.28;5.60;;;20.10;42.20;;;;;;4957056;28;20192;-68
2022/03/23 00:17:13;;;;;;;6.20;5.47;;;20.10;42.20;;;;;;4957492;28;20213;-68
2022/03/23 00:19:39;;;;;;;6.25;5.72;;;20.00;42.30;;;;;;4974445;28;20296;-68
2022/03/23 00:22:05;;;;;;;6.30;5.70;;;20.10;42.30;;;;;;4957130;28;20229;-68
2022/03/23 00:24:32;;;;;;;7.72;5.68;;;20.10;42.30;;;;;;4956967;28;20181;-68
2022/03/23 00:26:58;;;;;;;6.35;5.75;;;20.10;42.30;;;;;;4957387;28;20209;-69
2022/03/23 00:29:23;;;;;;;7.32;6.40;;;20.10;42.20;;;;;;4957152;28;20221;-68
2022/03/23 00:31:49;;;;;;;6.53;5.93;;;20.10;42.20;;;;;;4941418;28;20201;-68
2022/03/23 00:34:15;;;;;;;7.07;6.38;;;20.10;42.00;;;;;;4956846;28;20188;-68
2022/03/23 00:36:41;;;;;;;6.55;5.95;;;20.10;42.00;;;;;;4957172;28;20209;-68
2022/03/23 00:39:07;;;;;;;6.97;6.28;;;20.00;41.80;;;;;;4956738;28;20188;-67
2022/03/23 00:41:32;;;;;;;6.28;5.65;;;20.00;42.60;;;;;;5014904;23;20234;-70
2022/03/23 00:43:59;;;;;;;5.75;5.25;;;20.10;42.00;;;;;;5016786;28;20179;-70
2022/03/23 00:46:24;;;;;;;6.95;5.75;;;20.00;41.70;;;;;;5001282;28;20245;-70
2022/03/23 00:48:50;;;;;;;6.43;5.82;;;20.00;41.90;;;;;;5018282;28;20187;-70
2022/03/23 00:51:17;;;;;;;6.30;5.70;;;20.00;41.60;;;;;;5019974;28;20222;-70
2022/03/23 00:53:44;;;;;;;5.50;5.00;;;20.00;41.90;;;;;;5001778;28;20191;-70
2022/03/23 00:56:11;;;;;;;5.50;5.00;;;20.00;41.90;;;;;;5015431;28;20671;-70
2022/03/23 00:58:37;;;;;;;5.40;4.90;;;20.00;42.00;;;;;;5015799;28;20175;-70
2022/03/23 01:01:03;;;;;;;5.63;5.00;;;20.00;42.00;;;;;;4999488;28;20218;-69
2022/03/23 01:03:29;;;;;;;5.03;4.57;;;20.00;42.00;;;;;;4999580;28;20194;-70
2022/03/23 01:05:55;;;;;;;5.97;5.38;;;20.00;42.10;;;;;;5015945;28;20656;-70
2022/03/23 01:08:21;;;;;;;5.80;5.30;;;20.00;42.10;;;;;;4999949;28;20650;-70
2022/03/23 01:10:48;;;;;;;6.10;5.50;;;20.00;42.00;;;;;;5033582;28;20207;-70
2022/03/23 01:13:14;;;;;;;5.60;4.97;;;20.00;42.10;;;;;;5032624;28;20262;-70
2022/03/23 01:15:42;;;;;;;5.60;5.10;;;20.00;42.10;;;;;;4999497;28;20183;-70
2022/03/23 01:18:10;;;;;;;5.70;5.15;;;20.00;42.20;;;;;;4999747;28;20187;-70
2022/03/23 01:20:38;;;;;;;5.70;5.15;;;20.00;42.20;;;;;;4999563;28;20203;-70
2022/03/23 01:23:04;;;;;;;5.68;5.15;;;20.00;42.10;;;;;;4998398;28;20202;-69
2022/03/23 01:25:29;;;;;;;6.03;5.43;;;20.00;42.00;;;;;;4999259;28;20183;-70
2022/03/23 01:27:56;;;;;;;6.72;6.03;;;20.00;41.90;;;;;;5015283;28;20199;-70
2022/03/23 01:30:23;;;;;;;6.20;5.60;;;20.00;41.90;;;;;;5033257;28;20207;-70
2022/03/23 01:32:49;;;;;;;6.18;5.55;;;20.00;41.90;;;;;;4999322;28;20568;-70
2022/03/23 01:35:15;;;;;;;6.00;5.40;;;20.00;41.90;;;;;;5015151;28;20183;-70
2022/03/23 01:37:42;;;;;;;6.18;5.60;;;20.00;41.90;;;;;;5015510;28;20650;-70
2022/03/23 01:40:10;;;;;;;6.40;5.80;;;19.90;41.70;;;;;;5031476;28;20207;-70
2022/03/23 01:42:38;;;;;;;6.20;5.60;;;20.00;41.70;;;;;;5015385;28;20183;-70
2022/03/23 01:45:06;;;;;;;4.85;4.38;;;20.00;41.60;;;;;;4999188;28;20195;-70
2022/03/23 01:47:32;;;;;;;5.72;4.65;;;20.00;42.00;;;;;;5015114;28;20611;-70
2022/03/23 01:49:58;;;;;;;5.47;4.35;;;20.00;41.80;;;;;;4999111;28;20203;-69
2022/03/23 01:52:31;;;;;;;5.30;4.90;;;20.00;42.00;;;;;;5031798;28;20270;-69
2022/03/23 01:55:05;;;;;;;5.53;5.03;;;19.90;41.90;;;;;;5031891;28;20244;-70
2022/03/23 01:57:31;;;;;;;6.35;5.10;;;20.00;42.00;;;;;;4998732;28;20179;-70
2022/03/23 01:59:56;;;;;;;6.07;5.47;;;20.00;42.10;;;;;;4999146;28;20218;-70
2022/03/23 02:02:23;;;;;;;5.43;4.93;;;19.90;42.00;;;;;;5032323;28;20186;-70
2022/03/23 02:05:03;;;;;;;5.25;4.75;;;20.00;42.00;;;;;;5000341;28;20217;-70
2022/03/23 02:07:30;;;;;;;5.53;5.03;;;19.90;41.90;;;;;;4999211;28;20211;-70
2022/03/23 02:09:56;;;;;;;5.30;4.80;;;19.90;41.80;;;;;;5015749;28;20211;-70
2022/03/23 02:12:30;;;;;;;6.53;5.25;;;19.90;41.80;;;;;;5000431;28;20218;-70
2022/03/23 02:14:58;;;;;;;6.25;5.65;;;19.90;41.80;;;;;;5031405;28;20184;-70
2022/03/23 02:17:25;;;;;;;6.05;5.55;;;19.90;41.80;;;;;;4999369;28;20245;-70
2022/03/23 02:19:52;;;;;;;6.05;5.45;;;19.90;42.40;;;;;;4999198;28;20350;-70
2022/03/23 02:22:19;;;;;;;6.22;5.65;;;19.90;41.70;;;;;;4998437;28;20183;-70
2022/03/23 02:24:48;;;;;;;5.35;4.80;;;19.90;41.50;;;;;;5031709;28;20183;-70
2022/03/23 02:27:14;;;;;;;5.10;4.60;;;19.90;41.80;;;;;;4998547;28;20202;-70
2022/03/23 02:29:41;;;;;;;5.18;4.68;;;19.90;41.70;;;;;;4998183;28;20313;-70
2022/03/23 02:32:07;;;;;;;5.30;4.80;;;19.90;41.90;;;;;;4998715;28;20256;-70
2022/03/23 02:34:32;;;;;;;5.35;4.85;;;19.90;42.00;;;;;;5018313;28;20644;-70
2022/03/23 02:36:59;;;;;;;5.63;5.13;;;19.90;41.80;;;;;;5002364;28;20183;-70
2022/03/23 02:39:25;;;;;;;4.97;4.55;;;19.90;41.90;;;;;;5018180;28;20648;-70
2022/03/23 02:41:54;;;;;;;6.05;5.32;;;19.90;41.90;;;;;;5034968;28;20251;-70
2022/03/23 02:44:20;;;;;;;6.20;5.30;;;19.90;42.00;;;;;;5002195;28;20233;-69
2022/03/23 02:46:46;;;;;;;5.20;4.70;;;19.90;41.90;;;;;;5035047;28;20187;-70
2022/03/23 02:49:16;;;;;;;5.28;4.78;;;19.90;41.90;;;;;;5001728;28;20215;-70
2022/03/23 02:51:42;;;;;;;5.90;5.38;;;19.90;42.00;;;;;;5018141;28;20210;-70
2022/03/23 03:02:47;;;;;;;5.55;4.70;;;19.90;41.60;;;;;;5013695;28;20191;-70
2022/03/23 03:05:13;;;;;;;5.63;5.07;;;19.90;41.90;;;;;;5000973;28;20196;-69
2022/03/23 03:10:26;;;;;;;5.50;4.97;;;19.90;41.90;;;;;;5014250;28;20269;-70
2022/03/23 03:12:53;;;;;;;5.57;5.05;;;19.90;42.00;;;;;;4981990;28;20184;-70
2022/03/23 03:15:21;;;;;;;5.40;4.82;;;19.90;42.50;;;;;;4998367;28;20217;-70
2022/03/23 03:17:47;;;;;;;6.03;5.43;;;19.90;41.70;;;;;;4981871;28;20230;-70
2022/03/23 03:20:14;;;;;;;6.35;5.68;;;19.90;41.80;;;;;;4998077;28;20290;-70
2022/03/23 03:22:41;;;;;;;5.78;5.28;;;19.90;41.60;;;;;;4981592;28;20196;-70
2022/03/23 03:25:12;;;;;;;6.38;5.70;;;19.90;41.60;;;;;;5015075;28;20172;-69
2022/03/23 03:27:39;;;;;;;6.97;5.55;;;19.90;41.60;;;;;;5015673;28;20246;-70
2022/03/23 03:30:09;;;;;;;5.80;5.30;;;19.90;41.50;;;;;;5015258;28;20205;-70
2022/03/23 03:32:36;;;;;;;5.43;4.93;;;19.80;41.50;;;;;;4997972;28;20180;-70
2022/03/23 03:35:02;;;;;;;5.22;4.80;;;19.80;41.60;;;;;;4997989;28;20184;-70
2022/03/23 03:37:28;;;;;;;5.55;4.97;;;19.80;41.80;;;;;;4997878;28;20191;-70
2022/03/23 03:39:54;;;;;;;5.53;4.95;;;19.80;41.70;;;;;;4981290;28;20220;-70
2022/03/23 03:42:20;;;;;;;5.30;4.80;;;19.80;41.80;;;;;;4997832;28;20200;-70
2022/03/23 03:44:46;;;;;;;5.22;4.72;;;19.80;41.80;;;;;;4997201;28;20180;-70
2022/03/23 03:47:12;;;;;;;5.63;5.13;;;19.80;41.80;;;;;;5015371;28;20176;-70
2022/03/23 03:49:38;;;;;;;6.22;5.50;;;19.80;41.80;;;;;;5014990;28;20212;-69
2022/03/23 03:52:05;;;;;;;5.65;5.10;;;19.80;41.80;;;;;;4997911;28;20180;-70
2022/03/23 03:54:31;;;;;;;5.53;5.03;;;19.90;41.80;;;;;;5014574;28;20231;-70
2022/03/23 03:56:57;;;;;;;6.05;4.80;;;19.80;41.80;;;;;;4997547;28;20184;-70
2022/03/23 03:59:23;;;;;;;5.05;4.55;;;19.80;41.80;;;;;;5018031;28;20195;-70
2022/03/23 04:01:50;;;;;;;5.35;4.85;;;19.80;41.80;;;;;;5016251;28;20268;-69
2022/03/23 04:04:16;;;;;;;6.15;5.43;;;19.80;41.70;;;;;;5016476;28;20176;-69
2022/03/23 04:06:42;;;;;;;5.85;5.28;;;19.80;41.70;;;;;;5000423;28;20326;-70
2022/03/23 04:09:08;;;;;;;6.45;5.85;;;19.80;41.60;;;;;;5016854;28;20234;-69
2022/03/23 04:11:35;;;;;;;6.07;5.50;;;19.80;41.60;;;;;;5000448;28;20203;-70
2022/03/23 04:14:02;;;;;;;5.85;5.35;;;19.80;41.50;;;;;;5016316;28;20198;-70
2022/03/23 04:16:28;;;;;;;6.00;5.40;;;19.80;41.50;;;;;;5017031;28;20195;-70
2022/03/23 04:18:54;;;;;;;6.57;5.97;;;19.80;41.70;;;;;;5033334;28;20219;-69
2022/03/23 04:21:19;;;;;;;5.95;5.35;;;19.80;41.40;;;;;;5000322;28;20258;-70
2022/03/23 04:23:45;;;;;;;5.32;4.82;;;19.80;41.50;;;;;;5000440;28;20218;-69
2022/03/23 04:26:11;;;;;;;5.85;5.05;;;19.80;41.40;;;;;;5000119;28;20183;-70
2022/03/23 04:28:37;;;;;;;5.40;4.88;;;19.70;41.40;;;;;;5016553;28;20619;-70
2022/03/23 04:31:03;;;;;;;5.32;4.82;;;19.80;41.50;;;;;;5033197;28;20257;-69
2022/03/23 04:33:29;;;;;;;5.90;5.28;;;19.80;41.50;;;;;;5017378;28;20191;-70
2022/03/23 04:35:55;;;;;;;5.07;4.68;;;19.70;41.60;;;;;;5000836;28;20183;-70
2022/03/23 04:38:21;;;;;;;4.47;4.07;;;19.80;41.70;;;;;;5017158;28;20191;-70
2022/03/23 04:40:47;;;;;;;5.18;4.68;;;19.70;41.60;;;;;;5000831;28;20223;-70
2022/03/23 04:43:13;;;;;;;5.30;4.63;;;19.80;41.80;;;;;;5017802;28;20206;-70
2022/03/23 04:45:40;;;;;;;4.90;4.50;;;19.80;41.80;;;;;;5000768;28;20183;-70
2022/03/23 04:48:06;;;;;;;6.25;4.80;;;19.70;41.70;;;;;;5003139;28;20231;-70
2022/03/23 04:50:32;;;;;;;4.70;4.30;;;19.80;41.80;;;;;;5038775;28;20198;-70
2022/03/23 04:52:57;;;;;;;5.47;4.97;;;19.80;41.80;;;;;;5018642;28;20178;-70
2022/03/23 04:55:24;;;;;;;4.90;4.40;;;19.80;41.80;;;;;;5019297;28;20468;-70
2022/03/23 04:57:49;;;;;;;5.45;4.95;;;19.80;41.80;;;;;;5019018;28;20241;-69
2022/03/23 05:00:20;;;;;;;5.60;5.10;;;19.80;41.70;;;;;;5053023;28;20199;-70
2022/03/23 05:02:48;;;;;;;6.22;5.50;;;19.80;41.60;;;;;;5018481;28;20179;-70
2022/03/23 05:05:15;;;;;;;5.60;5.10;;;19.80;41.70;;;;;;5051371;28;20174;-70
2022/03/23 05:07:43;;;;;;;5.55;4.88;;;19.80;41.50;;;;;;5035608;28;20236;-70
2022/03/23 05:10:12;;;;;;;5.32;4.88;;;19.70;41.40;;;;;;5018765;28;20298;-69
2022/03/23 05:12:39;;;;;;;5.43;4.85;;;19.70;41.40;;;;;;5035406;28;20178;-69
2022/03/23 05:15:08;;;;;;;5.55;4.97;;;19.80;41.60;;;;;;5035007;28;20643;-70
2022/03/23 05:17:35;;;;;;;5.22;4.72;;;19.80;41.40;;;;;;5018437;28;20210;-69
2022/03/23 05:20:02;;;;;;;4.85;4.45;;;19.70;41.40;;;;;;5034898;28;20217;-69
2022/03/23 05:22:28;;;;;;;4.75;4.35;;;19.70;41.40;;;;;;5034788;28;20220;-70
2022/03/23 05:24:54;;;;;;;4.68;4.28;;;19.70;41.60;;;;;;5035163;28;20273;-69
2022/03/23 05:27:20;;;;;;;5.00;4.57;;;19.80;41.70;;;;;;5035208;28;20191;-69
2022/03/23 05:29:46;;;;;;;5.88;4.00;;;19.80;42.20;;;;;;5052907;28;20245;-69
2022/03/23 05:32:16;;;;;;;4.60;4.20;;;19.70;41.60;;;;;;5051835;28;20644;-69
2022/03/23 05:34:44;;;;;;;4.90;4.40;;;19.70;41.60;;;;;;5035502;28;20213;-69
2022/03/23 05:37:11;;;;;;;4.97;4.40;;;19.70;41.60;;;;;;5018728;28;20204;-70
2022/03/23 05:39:38;;;;;;;4.68;4.28;;;19.70;41.60;;;;;;5034756;28;20186;-69
2022/03/23 05:42:05;;;;;;;4.65;4.25;;;19.80;41.70;;;;;;5034579;28;20190;-70
2022/03/23 05:44:31;;;;;;;4.63;4.25;;;19.80;41.70;;;;;;5018072;28;20221;-69
2022/03/23 05:46:57;;;;;;;5.20;4.70;;;19.80;41.50;;;;;;5052474;28;20186;-70
2022/03/23 05:49:23;;;;;;;5.65;5.15;;;19.80;41.50;;;;;;5018115;28;20245;-70
2022/03/23 05:51:49;;;;;;;6.97;4.80;;;19.70;41.40;;;;;;5034722;28;20207;-69
2022/03/23 05:54:16;;;;;;;4.82;4.43;;;19.80;41.50;;;;;;5035967;28;20186;-69
2022/03/23 05:56:41;;;;;;;4.88;4.47;;;19.70;41.40;;;;;;5019237;28;20197;-70
2022/03/23 05:59:07;;;;;;;5.72;5.22;;;19.80;41.40;;;;;;5034993;28;20194;-69
2022/03/23 06:01:34;;;;;;;5.30;4.80;;;19.70;41.40;;;;;;5034673;28;20210;-70
2022/03/23 06:04:00;;;;;;;5.10;4.63;;;19.70;41.40;;;;;;5034796;28;20187;-69
2022/03/23 06:06:26;;;;;;;5.57;5.00;;;19.70;41.40;;;;;;5018297;28;20243;-69
2022/03/23 06:08:52;;;;;;;5.43;4.93;;;19.70;41.40;;;;;;5020590;28;20225;-70
2022/03/23 06:11:18;;;;;;;5.18;4.68;;;19.70;41.40;;;;;;5038188;28;20202;-69
2022/03/23 06:13:44;;;;;;;4.95;4.55;;;19.70;41.40;;;;;;5054398;28;20704;-70
2022/03/23 06:16:10;;;;;;;4.95;4.45;;;19.70;41.40;;;;;;5037797;28;20175;-69
2022/03/23 06:18:37;;;;;;;4.93;4.43;;;19.70;41.40;;;;;;5038094;28;20190;-69
2022/03/23 06:21:04;;;;;;;4.68;4.30;;;19.80;41.40;;;;;;5037563;28;20211;-69
2022/03/23 06:23:31;;;;;;;4.63;4.20;;;19.70;41.40;;;;;;5021140;28;20273;-69
2022/03/23 06:25:57;;;;;;;4.22;3.83;;;19.80;41.50;;;;;;5020796;28;20202;-70
2022/03/23 06:28:23;;;;;;;4.50;4.13;;;19.80;41.40;;;;;;5021126;28;20214;-69
2022/03/23 06:30:53;;;;;;;5.10;4.55;;;19.80;41.40;;;;;;5037801;28;20291;-70
2022/03/23 06:33:19;;;;;;;4.95;4.55;;;19.80;41.40;;;;;;5055403;28;20254;-69
2022/03/23 06:35:46;;;;;;;4.25;3.85;;;19.80;41.40;;;;;;5054655;28;20183;-70
2022/03/23 06:38:13;;;;;;;4.82;4.43;;;19.80;41.50;;;;;;5021258;28;20193;-70
2022/03/23 06:40:38;;;;;;;4.63;4.22;;;19.80;41.40;;;;;;5037639;28;20260;-69
2022/03/23 06:43:05;;;;;;;5.50;4.75;;;19.80;41.50;;;;;;5043420;23;20577;-68
2022/03/23 06:45:31;;;;;;;5.30;4.80;;;19.90;41.60;;;;;;5016963;28;20187;-68
2022/03/23 06:47:57;;;;;;;5.55;5.05;;;19.80;41.40;;;;;;5004105;28;20188;-68
2022/03/23 06:50:24;;;;;;;5.20;4.63;;;19.90;41.50;;;;;;4981362;28;20653;-68
2022/03/23 06:52:50;;;;;;;6.50;5.93;;;19.90;41.50;;;;;;5022698;28;20194;-68
2022/03/23 06:55:16;;;;;;;6.20;5.63;;;19.90;41.50;;;;;;5015451;28;20182;-68
2022/03/23 06:57:42;;;;;;;5.97;5.45;;;19.90;41.60;;;;;;5017220;28;20241;-68
2022/03/23 07:00:15;;;;;;;6.10;5.60;;;20.00;41.40;;;;;;5017420;28;20195;-68
2022/03/23 07:02:43;;;;;;;6.57;5.88;;;20.00;41.30;;;;;;5021777;28;20176;-68
2022/03/23 07:05:11;;;;;;;5.70;5.15;;;20.00;41.30;;;;;;5020661;28;20189;-68
2022/03/23 07:07:38;;;;;;;5.65;5.15;;;20.00;41.40;;;;;;5003968;28;20195;-68
2022/03/23 07:10:05;;;;;;;5.05;4.65;;;20.10;41.50;;;;;;5013705;28;20226;-69
2022/03/23 07:12:31;;;;;;;5.18;4.78;;;20.10;41.40;;;;;;4990722;28;20307;-68
2022/03/23 07:14:57;;;;;;;5.43;4.93;;;20.10;41.40;;;;;;5031122;28;20189;-68
2022/03/23 07:17:23;;;;;;;5.47;4.97;;;20.10;41.30;;;;;;5036864;28;20186;-68
2022/03/23 07:19:50;;;;;;;5.15;4.72;;;20.10;41.40;;;;;;5051984;28;20245;-68
2022/03/23 07:22:16;;;;;;;5.68;5.18;;;20.10;41.30;;;;;;5053442;28;20186;-68
2022/03/23 07:24:44;;;;;;;5.97;5.38;;;20.20;41.30;;;;;;5024793;28;20211;-69
2022/03/23 07:27:10;;;;;;;5.65;5.15;;;20.20;41.30;;;;;;5000616;28;20264;-68
2022/03/23 07:29:36;;;;;;;6.53;5.72;;;20.20;41.30;;;;;;5016748;28;20268;-68
2022/03/23 07:32:03;;;;;;;5.80;5.30;;;20.20;41.30;;;;;;5016794;28;20229;-68
2022/03/23 07:34:29;;;;;;;6.00;5.20;;;20.30;41.30;;;;;;4999945;28;20204;-68
2022/03/23 07:36:55;;;;;;;5.80;5.30;;;20.30;41.30;;;;;;5034698;28;20210;-68
2022/03/23 07:39:23;;;;;;;5.40;5.00;;;20.30;41.30;;;;;;5000446;28;20199;-68
2022/03/23 07:41:50;;;;;;;5.90;5.40;;;20.30;41.30;;;;;;5019608;28;20189;-68
2022/03/23 07:44:21;;;;;;;6.13;5.63;;;20.30;41.20;;;;;;5028700;28;20211;-68
2022/03/23 07:46:47;;;;;;;5.88;5.38;;;20.40;41.30;;;;;;5030820;28;20644;-69
2022/03/23 07:49:15;;;;;;;6.28;5.60;;;20.40;41.30;;;;;;5036350;28;20217;-68
2022/03/23 07:51:41;;;;;;;6.03;5.53;;;20.40;41.20;;;;;;5018402;28;20179;-68
2022/03/23 07:54:08;;;;;;;6.40;5.80;;;20.40;41.20;;;;;;5013083;28;20219;-68
2022/03/23 07:56:34;;;;;;;6.18;5.57;;;20.40;41.20;;;;;;5019253;28;20188;-68
2022/03/23 07:59:00;;;;;;;7.07;6.40;;;20.40;41.20;;;;;;5003727;28;20199;-68
2022/03/23 08:01:26;;;;;;;6.53;5.93;;;20.40;41.20;;;;;;5012987;28;20195;-68
2022/03/23 08:03:52;;;;;;;6.63;6.03;;;20.40;41.30;;;;;;5028229;28;20229;-66
2022/03/23 08:06:17;;;;;;;7.05;5.97;;;20.50;41.30;;;;;;5033497;28;20191;-68
2022/03/23 08:08:43;;;;;;;6.30;5.80;;;20.50;41.30;;;;;;5016138;28;20214;-68
2022/03/23 08:11:09;;;;;;;6.45;5.85;;;20.50;41.30;;;;;;5033450;28;20168;-68
2022/03/23 08:13:35;;;;;;;6.30;5.80;;;20.50;41.30;;;;;;5015682;28;20209;-69
2022/03/23 08:16:03;;;;;;;6.32;5.30;;;20.50;41.30;;;;;;5016298;28;20175;-68
2022/03/23 08:18:28;;;;;;;6.68;6.07;;;20.50;41.40;;;;;;5015551;28;20278;-66
2022/03/23 08:20:54;;;;;;;5.88;5.38;;;20.50;41.40;;;;;;4999140;28;20193;-68
2022/03/23 08:23:20;;;;;;;6.25;5.63;;;20.50;41.40;;;;;;5031925;28;20215;-68
2022/03/23 08:25:46;;;;;;;5.60;5.10;;;20.50;41.40;;;;;;5015182;28;20198;-68
2022/03/23 08:28:17;;;;;;;6.03;5.43;;;20.50;41.40;;;;;;4999305;28;20282;-68
2022/03/23 08:30:44;;;;;;;6.55;5.85;;;20.60;41.50;;;;;;5015114;28;20207;-68
2022/03/23 08:33:11;;;;;;;6.22;5.63;;;20.60;41.50;;;;;;5030851;28;20277;-68
2022/03/23 08:35:38;;;;;;;6.13;5.53;;;20.60;41.60;;;;;;5031652;28;20704;-69
2022/03/23 08:38:06;;;;;;;5.47;4.97;;;20.60;41.50;;;;;;5015342;28;20202;-69
2022/03/23 08:40:33;;;;;;;5.70;5.13;;;20.60;41.50;;;;;;5031746;28;20187;-69
2022/03/23 08:42:58;;;;;;;5.85;5.35;;;20.60;41.50;;;;;;4998879;28;20219;-69
2022/03/23 08:45:26;;;;;;;5.43;4.93;;;20.60;41.50;;;;;;5009123;28;20645;-69
2022/03/23 08:47:52;;;;;;;5.80;5.30;;;20.60;41.50;;;;;;5015203;28;20664;-69
2022/03/23 08:50:18;;;;;;;6.05;5.13;;;20.60;41.50;;;;;;5031507;28;20653;-69
2022/03/23 08:52:44;;;;;;;4.90;4.50;;;20.60;41.50;;;;;;5024885;28;20194;-69
2022/03/23 08:55:15;;;;;;;6.05;5.18;;;20.60;41.50;;;;;;5015203;28;20191;-69
2022/03/23 08:57:44;;;;;;;5.45;4.95;;;20.60;41.50;;;;;;5015219;28;20306;-70
2022/03/23 09:00:11;;;;;;;5.57;5.07;;;20.60;41.50;;;;;;4999182;28;20188;-69
2022/03/23 09:02:38;;;;;;;5.38;4.88;;;20.60;41.50;;;;;;5015341;28;20262;-69
2022/03/23 09:05:05;;;;;;;5.18;4.68;;;20.60;41.50;;;;;;5014025;28;20190;-69
2022/03/23 09:07:32;;;;;;;5.63;5.07;;;20.60;41.50;;;;;;5032353;28;20213;-69
2022/03/23 09:10:00;;;;;;;4.97;4.50;;;20.60;41.50;;;;;;5015021;28;20286;-69
2022/03/23 09:12:26;;;;;;;5.20;4.70;;;20.60;41.50;;;;;;4998544;28;20587;-69
2022/03/23 09:14:52;;;;;;;5.50;4.88;;;20.60;42.00;;;;;;5014162;28;20211;-67
2022/03/23 09:17:18;;;;;;;5.82;5.20;;;20.60;41.40;;;;;;5014869;28;20187;-70
2022/03/23 09:19:43;;;;;;;5.45;4.80;;;20.70;41.60;;;;;;4998267;28;20187;-69
2022/03/23 09:22:10;;;;;;;4.88;4.43;;;20.60;41.40;;;;;;5032170;28;20244;-68
2022/03/23 09:24:36;;;;;;;5.40;4.90;;;20.60;41.30;;;;;;5030631;28;20242;-69
2022/03/23 09:27:02;;;;;;;5.07;4.57;;;20.60;41.40;;;;;;5031242;28;20210;-69
2022/03/23 09:29:27;;;;;;;4.68;4.28;;;20.60;41.40;;;;;;5014507;28;20211;-69
2022/03/23 09:31:53;;;;;;;5.13;4.50;;;20.60;41.20;;;;;;5032242;28;20267;-70
2022/03/23 09:34:20;;;;;;;4.57;4.18;;;20.60;41.30;;;;;;5047083;28;20211;-69
2022/03/23 09:39:30;;;;;;;4.95;4.53;;;20.60;41.30;;;;;;5030923;28;20176;-69
2022/03/23 09:41:58;;;;;;;4.78;4.38;;;20.60;41.40;;;;;;5014823;28;20233;-69
2022/03/23 09:44:28;;;;;;;5.00;4.30;;;20.70;41.40;;;;;;5032213;28;20272;-69
2022/03/23 09:46:58;;;;;;;4.68;4.28;;;20.60;41.40;;;;;;5036220;28;20551;-69
2022/03/23 09:49:25;;;;;;;5.18;4.68;;;20.60;41.20;;;;;;5001977;28;20277;-69
2022/03/23 09:51:53;;;;;;;4.88;4.47;;;20.60;41.30;;;;;;5018244;28;20278;-70
2022/03/23 09:54:23;;;;;;;4.68;4.28;;;20.60;41.20;;;;;;5019577;28;20262;-69
2022/03/23 09:56:50;;;;;;;4.75;4.30;;;20.70;41.30;;;;;;5018567;28;20655;-69
2022/03/23 09:59:16;;;;;;;4.53;4.13;;;20.60;41.30;;;;;;5018513;28;20185;-69
2022/03/23 10:02:01;;;;;;;4.43;4.07;;;20.60;41.30;;;;;;5051278;28;20622;-69
2022/03/23 10:04:49;;;;;;;4.57;4.18;;;20.60;41.20;;;;;;5031095;28;20591;-69
2022/03/23 10:07:34;;;;;;;4.28;3.88;;;20.60;41.30;;;;;;5018305;28;20183;-69
2022/03/23 10:11:00;;;;;;;4.38;3.97;;;20.60;42.00;;;;;;5017828;28;20213;-69
2022/03/23 10:14:09;;;;;;;4.32;3.92;;;20.60;41.40;;;;;;5001617;28;20222;-69
2022/03/23 10:17:27;;;;;;;4.35;3.95;;;20.70;41.30;;;;;;4982129;28;20238;-69
2022/03/23 10:19:54;;;;;;;6.05;4.20;;;20.60;41.30;;;;;;4998006;28;20183;-69
2022/03/23 10:22:26;;;;;;;4.93;4.53;;;20.70;41.40;;;;;;4982814;28;20199;-69
2022/03/23 10:24:51;;;;;;;4.22;3.92;;;20.60;41.30;;;;;;5023773;28;20211;-69
2022/03/23 10:27:17;;;;;;;4.68;4.28;;;20.60;41.20;;;;;;5017761;28;20213;-69
2022/03/23 10:29:48;;;;;;;4.43;3.97;;;20.60;41.80;;;;;;5001288;28;20335;-69
2022/03/23 10:32:17;;;;;;;4.85;4.35;;;20.60;41.20;;;;;;5001409;28;20190;-69
2022/03/23 10:34:51;;;;;;;4.15;3.78;;;20.60;41.20;;;;;;5017979;28;20211;-69
2022/03/23 10:37:29;;;;;;;4.35;3.95;;;20.60;41.20;;;;;;5017532;28;20183;-68
2022/03/23 10:40:07;;;;;;;4.43;4.03;;;20.60;41.20;;;;;;5017812;28;20224;-69
2022/03/23 10:42:38;;;;;;;4.28;3.90;;;20.70;41.30;;;;;;5034006;28;20179;-69
2022/03/23 10:45:12;;;;;;;4.07;3.67;;;20.60;41.20;;;;;;5033350;28;20987;-69
2022/03/23 10:47:40;;;;;;;4.82;3.90;;;20.60;41.10;;;;;;5033964;28;20190;-69
2022/03/23 10:50:20;;;;;;;4.47;4.10;;;20.60;41.10;;;;;;5033911;28;20215;-69
2022/03/23 10:53:06;;;;;;;4.20;3.83;;;20.70;41.20;;;;;;5017604;28;20261;-67
2022/03/23 10:55:48;;;;;;;3.80;3.50;;;20.70;41.20;;;;;;5033642;28;20183;-68
2022/03/23 10:58:23;;;;;;;3.92;3.63;;;20.70;41.10;;;;;;5017107;28;20195;-68
2022/03/23 11:00:52;;;;;;;3.80;3.50;;;20.60;41.10;;;;;;5017319;28;20241;-68
2022/03/23 11:03:18;;;;;;;4.00;3.70;;;20.70;41.20;;;;;;5016917;28;20234;-68
2022/03/23 11:05:49;;;;;;;5.43;4.00;;;20.70;41.20;;;;;;5003269;28;20668;-68
2022/03/23 11:08:24;;;;;;;3.90;3.60;;;20.70;41.10;;;;;;5017460;28;20226;-69
2022/03/23 11:19:20;;;;;;;3.80;3.50;;;20.70;41.10;;;;;;5014767;28;20188;-68
2022/03/23 11:22:06;;;;;;;4.40;4.00;;;20.70;41.20;;;;;;5007545;28;20250;-68
2022/03/23 11:24:41;;;;;;;3.72;3.40;;;20.70;41.20;;;;;;5003518;28;20211;-68
2022/03/23 11:27:17;;;;;;;6.35;3.85;;;20.70;41.20;;;;;;5016865;28;20184;-69
2022/03/23 11:29:44;;;;;;;3.75;3.42;;;20.70;41.30;;;;;;5000279;28;20218;-69
2022/03/23 11:32:29;;;;;;;4.40;4.00;;;20.70;41.20;;;;;;5016663;28;20190;-68
2022/03/23 11:34:59;;;;;;;4.03;3.70;;;20.70;41.10;;;;;;5033787;28;20178;-69
2022/03/23 11:37:29;;;;;;;4.35;3.95;;;20.70;41.00;;;;;;5000377;28;20222;-67
2022/03/23 11:39:56;;;;;;;3.63;3.33;;;20.70;41.00;;;;;;5016325;28;20563;-68
2022/03/23 11:42:24;;;;;;;5.05;3.80;;;20.70;41.10;;;;;;5000011;28;20248;-68
2022/03/23 11:44:50;;;;;;;3.63;3.30;;;20.70;41.20;;;;;;5015983;28;20229;-68
2022/03/23 11:47:40;;;;;;;3.88;3.47;;;20.70;41.30;;;;;;5000043;28;20187;-68
2022/03/23 11:50:44;;;;;;;4.03;3.72;;;20.70;41.20;;;;;;4999851;28;20254;-68
2022/03/23 11:53:41;;;;;;;4.07;3.78;;;20.70;41.20;;;;;;4918367;29;20202;-68
2022/03/23 11:56:10;;;;;;;4.93;3.80;;;20.70;41.20;;;;;;4899271;29;20200;-69
2022/03/23 11:58:38;;;;;;;3.92;3.63;;;20.70;41.10;;;;;;4981396;28;20565;-69
2022/03/23 12:01:12;;;;;;;4.10;3.80;;;20.70;41.20;;;;;;5052333;28;20313;-69
2022/03/23 12:03:41;;;;;;;3.58;3.28;;;20.70;41.00;;;;;;5019136;28;20209;-68
2022/03/23 12:06:22;;;;;;;3.60;3.30;;;20.70;41.10;;;;;;4999027;28;20214;-68
2022/03/23 12:08:59;;;;;;;3.67;3.38;;;20.70;41.10;;;;;;4999309;28;20230;-68
2022/03/23 12:11:33;;;;;;;3.70;3.40;;;20.70;41.00;;;;;;5015686;28;20213;-68
2022/03/23 12:14:02;;;;;;;3.90;3.60;;;20.70;41.00;;;;;;4999365;28;20218;-69
2022/03/23 12:16:46;;;;;;;4.13;3.72;;;20.70;41.00;;;;;;5015803;28;20187;-68
2022/03/23 12:19:26;;;;;;;3.80;3.50;;;20.70;40.90;;;;;;5015791;28;20227;-68
2022/03/23 12:21:58;;;;;;;3.90;3.53;;;20.70;41.00;;;;;;5032243;28;20182;-68
2022/03/23 12:25:02;;;;;;;3.80;3.15;;;20.70;41.10;;;;;;5012792;28;20207;-66
2022/03/23 12:27:52;;;;;;;3.33;3.10;;;20.70;41.00;;;;;;4981185;28;20276;-66
2022/03/23 12:30:58;;;;;;;3.50;3.20;;;20.70;41.00;;;;;;5018562;28;20222;-68
2022/03/23 12:33:30;;;;;;;3.35;3.05;;;20.70;41.70;;;;;;4999761;28;20209;-68
2022/03/23 12:36:02;;;;;;;3.75;3.40;;;20.70;41.10;;;;;;5030653;28;20278;-68
2022/03/23 12:38:29;;;;;;;3.60;3.30;;;20.70;41.10;;;;;;5018667;28;20194;-68
2022/03/23 12:41:09;;;;;;;3.70;3.40;;;20.70;41.20;;;;;;5015488;28;20270;-68
2022/03/23 12:43:42;;;;;;;3.88;3.40;;;20.70;41.00;;;;;;5015626;22;20214;-70
2022/03/23 12:46:28;;;;;;;3.40;3.10;;;20.70;41.00;;;;;;4962923;28;20205;-70
2022/03/23 12:57:49;;;;;;;4.20;3.50;;;20.80;41.00;;;;;;4976643;28;20203;-70
2022/03/23 13:00:39;;;;;;;3.22;3.03;;;20.70;40.90;;;;;;4992668;28;20239;-70
2022/03/23 13:03:07;;;;;;;3.25;3.05;;;20.70;40.90;;;;;;4992829;28;20177;-70
2022/03/23 13:05:35;;;;;;;3.60;3.30;;;20.70;40.90;;;;;;4976406;28;20315;-70
2022/03/23 13:08:27;;;;;;;3.92;3.20;;;20.70;41.00;;;;;;4994213;28;20216;-70
2022/03/23 13:11:02;;;;;;;3.63;3.33;;;20.70;41.20;;;;;;4976708;28;20300;-70
2022/03/23 13:13:33;;;;;;;5.22;3.60;;;20.80;41.30;;;;;;4978006;28;20191;-70
2022/03/23 13:16:00;;;;;;;3.50;3.20;;;20.70;41.30;;;;;;4975908;28;20189;-70
2022/03/23 13:18:31;;;;;;;3.65;3.35;;;20.80;41.40;;;;;;4992060;28;20243;-70
2022/03/23 13:20:59;;;;;;;3.58;3.28;;;20.80;41.40;;;;;;4961440;28;20181;-70
2022/03/23 13:23:28;;;;;;;3.35;3.10;;;20.80;41.50;;;;;;4975778;28;20288;-70
2022/03/23 13:26:18;;;;;;;3.90;3.60;;;20.80;41.60;;;;;;4991394;28;20192;-70
2022/03/23 13:28:58;;;;;;;3.72;3.40;;;20.80;41.70;;;;;;4993281;28;20193;-70